Time;durP1;ratioP1;P1;durP2;ratioP2;P2;SDS_P1;SDS_P2;PMS_P1;PMS_P2;Temp;Humidity;BMP_temperature;BMP_pressure;BME280_temperature;BME280_humidity;BME280_pressure;Samples;Min_cycle;Max_cycle;Signal;HPM_P1;HPM_P2
2021/11/13 00:00:39;;;;;;;11.35;6.30;;;3.20;99.90;;;;;;5007541;28;20049;-79
2021/11/13 00:03:06;;;;;;;16.45;6.78;;;3.20;99.90;;;;;;5006306;28;20034;-78
2021/11/13 00:05:32;;;;;;;10.45;6.45;;;3.20;99.90;;;;;;5006626;28;20046;-80
2021/11/13 00:07:58;;;;;;;16.35;6.88;;;3.20;99.90;;;;;;5004261;28;20416;-79
2021/11/13 00:10:27;;;;;;;12.38;7.05;;;3.20;99.90;;;;;;5003301;28;20037;-79
2021/11/13 00:12:59;;;;;;;12.65;7.80;;;3.20;99.90;;;;;;5017928;28;20480;-79
2021/11/13 00:15:28;;;;;;;9.30;6.55;;;3.20;99.90;;;;;;5003648;28;20026;-80
2021/11/13 00:17:54;;;;;;;10.05;6.10;;;3.20;99.90;;;;;;5000582;28;20547;-80
2021/11/13 00:20:22;;;;;;;9.75;6.80;;;3.20;99.90;;;;;;5004071;28;20030;-79
2021/11/13 00:22:49;;;;;;;12.73;8.35;;;3.20;99.90;;;;;;5008856;28;20060;-79
2021/11/13 00:25:15;;;;;;;12.27;7.93;;;3.20;99.90;;;;;;5005611;28;20034;-79
2021/11/13 00:27:42;;;;;;;18.40;7.72;;;3.20;99.90;;;;;;5004648;28;20036;-79
2021/11/13 00:30:09;;;;;;;26.02;9.05;;;3.20;99.90;;;;;;4999610;28;20116;-79
2021/11/13 00:32:35;;;;;;;13.25;7.15;;;3.20;99.90;;;;;;5006764;28;20052;-79
2021/11/13 00:35:00;;;;;;;13.60;8.82;;;3.20;99.90;;;;;;5010129;28;20385;-80
2021/11/13 00:37:27;;;;;;;12.40;7.60;;;3.20;99.90;;;;;;5009014;28;20132;-79
2021/11/13 00:39:53;;;;;;;16.45;7.97;;;3.20;99.90;;;;;;5011535;28;20026;-79
2021/11/13 00:42:19;;;;;;;23.80;7.75;;;3.20;99.90;;;;;;5016792;28;20075;-79
2021/11/13 00:44:44;;;;;;;28.45;9.55;;;3.20;99.90;;;;;;5013483;28;20117;-80
2021/11/13 00:47:10;;;;;;;12.95;7.57;;;3.20;99.90;;;;;;5013540;28;20022;-80
2021/11/13 00:49:36;;;;;;;25.15;9.02;;;3.20;99.90;;;;;;5011289;28;20092;-80
2021/11/13 00:52:02;;;;;;;16.10;8.25;;;3.20;99.90;;;;;;5012667;28;20036;-80
2021/11/13 00:54:30;;;;;;;27.05;9.38;;;3.20;99.90;;;;;;5012927;28;20036;-80
2021/11/13 00:56:56;;;;;;;13.13;8.15;;;3.20;99.90;;;;;;5015528;28;20026;-80
2021/11/13 00:59:22;;;;;;;22.58;9.38;;;3.10;99.90;;;;;;5013289;28;20046;-81
2021/11/13 01:01:48;;;;;;;16.73;8.50;;;3.10;99.90;;;;;;5011714;28;20053;-80
2021/11/13 01:04:14;;;;;;;15.43;8.98;;;3.20;99.90;;;;;;5013444;28;20042;-80
2021/11/13 01:06:40;;;;;;;17.45;9.95;;;3.20;99.90;;;;;;5015374;28;20026;-80
2021/11/13 01:09:06;;;;;;;13.02;8.25;;;3.20;99.90;;;;;;5010412;28;20026;-80
2021/11/13 01:11:32;;;;;;;12.63;8.35;;;3.20;99.90;;;;;;5012647;28;20034;-80
2021/11/13 01:13:57;;;;;;;15.18;8.57;;;3.20;99.90;;;;;;5010734;28;20415;-80
2021/11/13 01:16:26;;;;;;;15.82;8.55;;;3.20;99.90;;;;;;5010197;28;20940;-80
2021/11/13 01:18:53;;;;;;;15.32;8.82;;;3.30;99.90;;;;;;5025820;28;20026;-80
2021/11/13 01:21:19;;;;;;;13.00;8.63;;;3.30;99.90;;;;;;5019721;28;20034;-80
2021/11/13 01:23:44;;;;;;;9.45;8.05;;;3.30;99.90;;;;;;5009915;28;20034;-80
2021/11/13 01:26:10;;;;;;;18.95;7.85;;;3.30;99.90;;;;;;5006340;28;21338;-80
2021/11/13 01:28:36;;;;;;;17.40;9.23;;;3.30;99.90;;;;;;5010555;28;20025;-80
2021/11/13 01:31:02;;;;;;;15.30;8.82;;;3.30;99.90;;;;;;5010744;28;20043;-80
2021/11/13 01:33:27;;;;;;;19.67;9.43;;;3.30;99.90;;;;;;5008667;28;20057;-80
2021/11/13 01:35:53;;;;;;;14.32;8.43;;;3.30;99.90;;;;;;5009164;28;20647;-80
2021/11/13 01:38:19;;;;;;;12.82;8.18;;;3.30;99.90;;;;;;5011486;28;20097;-80
2021/11/13 01:40:45;;;;;;;15.93;8.23;;;3.20;99.90;;;;;;5005482;28;20045;-80
2021/11/13 01:43:11;;;;;;;12.43;8.05;;;3.30;99.90;;;;;;5006029;28;20050;-80
2021/11/13 01:45:37;;;;;;;20.38;8.82;;;3.30;99.90;;;;;;5008450;28;20073;-80
2021/11/13 01:48:03;;;;;;;15.88;8.70;;;3.30;99.90;;;;;;5008306;28;20122;-80
2021/11/13 01:50:47;;;;;;;14.07;8.18;;;3.30;99.90;;;;;;5007106;28;20073;-80
2021/11/13 01:53:13;;;;;;;13.15;8.40;;;3.30;99.90;;;;;;5018247;28;20041;-80
2021/11/13 01:55:40;;;;;;;15.45;8.15;;;3.30;99.90;;;;;;5016617;28;20030;-81
2021/11/13 01:58:11;;;;;;;19.85;8.18;;;3.30;99.90;;;;;;5000360;28;20034;-79
2021/11/13 02:00:50;;;;;;;27.85;9.52;;;3.30;99.90;;;;;;5003146;28;20038;-80
2021/11/13 02:03:17;;;;;;;26.90;9.02;;;3.30;99.90;;;;;;5002628;28;20058;-79
2021/11/13 02:05:42;;;;;;;71.68;12.38;;;3.30;99.90;;;;;;4999490;28;20061;-80
2021/11/13 02:08:08;;;;;;;17.75;9.73;;;3.30;99.90;;;;;;4997734;28;20034;-80
2021/11/13 02:10:35;;;;;;;15.23;9.00;;;3.30;99.90;;;;;;4998226;28;20052;-79
2021/11/13 02:13:01;;;;;;;16.40;8.88;;;3.30;99.90;;;;;;5001405;28;20022;-80
2021/11/13 02:15:28;;;;;;;31.92;9.77;;;3.30;99.90;;;;;;5017013;28;20026;-80
2021/11/13 02:17:56;;;;;;;30.98;10.20;;;3.30;99.90;;;;;;5001600;28;20026;-79
2021/11/13 02:20:42;;;;;;;47.85;10.95;;;3.30;99.90;;;;;;4997649;28;20523;-79
2021/11/13 02:23:23;;;;;;;20.67;8.23;;;3.30;99.90;;;;;;5001810;28;20025;-79
2021/11/13 02:25:51;;;;;;;33.60;9.60;;;3.30;99.90;;;;;;4999088;28;20026;-79
2021/11/13 02:28:20;;;;;;;38.72;10.52;;;3.30;99.90;;;;;;5003633;28;20336;-80
2021/11/13 02:30:47;;;;;;;32.72;9.00;;;3.30;99.90;;;;;;5025709;28;20044;-80
2021/11/13 02:33:14;;;;;;;21.35;9.05;;;3.30;99.90;;;;;;5009144;28;20041;-80
2021/11/13 02:35:41;;;;;;;14.30;8.15;;;3.20;99.90;;;;;;5013898;28;20135;-79
2021/11/13 02:38:19;;;;;;;16.27;9.45;;;3.20;99.90;;;;;;5010871;28;20031;-80
2021/11/13 02:40:47;;;;;;;21.23;10.70;;;3.20;99.90;;;;;;5022030;28;20377;-80
2021/11/13 02:43:15;;;;;;;16.77;9.90;;;3.30;99.90;;;;;;4999530;28;20026;-80
2021/11/13 02:45:41;;;;;;;16.38;8.45;;;3.30;99.90;;;;;;5006610;28;20519;-79
2021/11/13 02:48:09;;;;;;;21.85;11.18;;;3.30;99.90;;;;;;4997579;28;20037;-80
2021/11/13 02:50:36;;;;;;;26.38;10.43;;;3.30;99.90;;;;;;5004535;28;20034;-79
2021/11/13 02:53:03;;;;;;;19.20;9.63;;;3.30;99.90;;;;;;5008319;28;20033;-79
2021/11/13 02:55:31;;;;;;;19.17;9.63;;;3.30;99.90;;;;;;5023951;28;20034;-79
2021/11/13 02:57:57;;;;;;;28.73;9.75;;;3.30;99.90;;;;;;5008242;28;20044;-79
2021/11/13 03:00:27;;;;;;;18.02;9.25;;;3.30;99.90;;;;;;5008000;28;20034;-79
2021/11/13 03:02:54;;;;;;;15.10;8.60;;;3.30;99.90;;;;;;5010764;28;20072;-79
2021/11/13 03:05:29;;;;;;;15.82;9.07;;;3.30;99.90;;;;;;5003692;28;20730;-79
2021/11/13 03:07:57;;;;;;;13.73;8.95;;;3.30;99.90;;;;;;5019602;28;20032;-79
2021/11/13 03:10:26;;;;;;;18.15;9.07;;;3.30;99.90;;;;;;5005311;28;20030;-79
2021/11/13 03:12:52;;;;;;;14.77;8.55;;;3.30;99.90;;;;;;5007142;28;20053;-79
2021/11/13 03:15:20;;;;;;;17.48;9.63;;;3.30;99.90;;;;;;5006475;28;20034;-79
2021/11/13 03:17:46;;;;;;;20.05;9.50;;;3.20;99.90;;;;;;5006043;28;20051;-79
2021/11/13 03:20:17;;;;;;;13.98;7.82;;;3.20;99.90;;;;;;5010385;28;20060;-79
2021/11/13 03:22:43;;;;;;;12.13;7.97;;;3.20;99.90;;;;;;5009722;28;20022;-79
2021/11/13 03:25:12;;;;;;;15.73;9.05;;;3.30;99.90;;;;;;5008832;28;20031;-79
2021/11/13 03:27:39;;;;;;;13.57;8.18;;;3.20;99.90;;;;;;5005054;28;20026;-79
2021/11/13 03:30:07;;;;;;;14.88;9.18;;;3.30;99.90;;;;;;5004605;28;20105;-79
2021/11/13 03:32:34;;;;;;;11.95;7.85;;;3.30;99.90;;;;;;5007461;28;20034;-79
2021/11/13 03:35:02;;;;;;;13.13;8.10;;;3.30;99.90;;;;;;5007239;28;20081;-79
2021/11/13 03:37:28;;;;;;;11.80;7.85;;;3.30;99.90;;;;;;5002823;28;20696;-79
2021/11/13 03:39:54;;;;;;;19.15;8.52;;;3.30;99.90;;;;;;5015485;28;20811;-79
2021/11/13 03:42:20;;;;;;;17.48;8.88;;;3.30;99.90;;;;;;5000823;28;20026;-79
2021/11/13 03:44:46;;;;;;;15.68;8.80;;;3.30;99.90;;;;;;5013352;28;20045;-79
2021/11/13 03:47:12;;;;;;;22.20;8.88;;;3.30;99.90;;;;;;5002203;28;20026;-79
2021/11/13 03:49:37;;;;;;;21.30;8.60;;;3.30;99.90;;;;;;5000093;28;20026;-78
2021/11/13 03:52:03;;;;;;;22.30;8.15;;;3.20;99.90;;;;;;4994869;28;20026;-79
2021/11/13 03:54:31;;;;;;;18.10;8.98;;;3.20;99.90;;;;;;5007642;28;20141;-79
2021/11/13 03:56:57;;;;;;;30.20;11.00;;;3.20;99.90;;;;;;4992381;28;20072;-79
2021/11/13 03:59:25;;;;;;;20.92;7.82;;;3.10;99.90;;;;;;5002250;28;20900;-79
2021/11/13 04:01:51;;;;;;;21.40;8.88;;;3.10;99.90;;;;;;4988480;28;20073;-79
2021/11/13 04:04:17;;;;;;;12.85;7.93;;;3.10;99.90;;;;;;4989115;28;20488;-79
2021/11/13 04:06:43;;;;;;;25.63;8.30;;;3.00;99.90;;;;;;5004203;28;20081;-79
2021/11/13 04:09:08;;;;;;;27.35;9.10;;;3.00;99.90;;;;;;5015571;28;20022;-78
2021/11/13 04:11:34;;;;;;;32.17;9.27;;;2.90;99.90;;;;;;4997716;28;20042;-79
2021/11/13 04:14:00;;;;;;;16.38;8.02;;;2.90;99.90;;;;;;5001813;28;20397;-79
2021/11/13 04:16:25;;;;;;;11.30;7.78;;;3.00;99.90;;;;;;4995674;28;21958;-79
2021/11/13 04:18:51;;;;;;;10.52;7.50;;;3.00;99.90;;;;;;4995017;28;20037;-79
2021/11/13 04:21:17;;;;;;;21.90;7.80;;;2.90;99.90;;;;;;4995792;28;20380;-80
2021/11/13 04:23:44;;;;;;;18.42;8.35;;;2.90;99.90;;;;;;5001180;28;20466;-79
2021/11/13 04:26:11;;;;;;;17.33;8.15;;;2.90;99.90;;;;;;4998244;28;20061;-79
2021/11/13 04:28:36;;;;;;;13.18;7.72;;;2.90;99.90;;;;;;4998653;28;20115;-79
2021/11/13 04:31:02;;;;;;;14.88;6.50;;;3.00;99.90;;;;;;5000325;28;20042;-79
2021/11/13 04:33:29;;;;;;;37.17;8.27;;;2.90;99.90;;;;;;4998973;28;20029;-79
2021/11/13 04:38:41;;;;;;;10.35;7.53;;;3.00;99.90;;;;;;4991772;28;20053;-78
2021/11/13 04:41:07;;;;;;;13.73;7.43;;;3.00;99.90;;;;;;4986920;28;20113;-78
2021/11/13 04:43:33;;;;;;;8.57;6.78;;;3.00;99.90;;;;;;4995748;28;20026;-79
2021/11/13 04:45:59;;;;;;;13.90;8.00;;;3.00;99.90;;;;;;5003902;28;20030;-79
2021/11/13 04:48:25;;;;;;;12.32;8.00;;;3.00;99.90;;;;;;5003076;28;20148;-78
2021/11/13 04:50:50;;;;;;;14.77;7.82;;;3.00;99.90;;;;;;5008577;28;20050;-79
2021/11/13 04:53:16;;;;;;;11.43;7.07;;;3.00;99.90;;;;;;5001865;28;20026;-79
2021/11/13 04:55:42;;;;;;;12.35;7.15;;;2.90;99.90;;;;;;5003050;28;20044;-79
2021/11/13 04:58:08;;;;;;;11.38;7.53;;;3.00;99.90;;;;;;4998066;28;20030;-79
2021/11/13 05:00:34;;;;;;;14.73;7.53;;;2.90;99.90;;;;;;5006121;28;21186;-79
2021/11/13 05:03:01;;;;;;;11.45;7.30;;;2.90;99.90;;;;;;4987514;28;20038;-79
2021/11/13 05:05:28;;;;;;;11.32;6.28;;;2.90;99.90;;;;;;4988372;28;20044;-79
2021/11/13 05:07:54;;;;;;;10.20;6.57;;;2.90;99.90;;;;;;4990676;28;20030;-78
2021/11/13 05:10:20;;;;;;;11.40;7.60;;;2.90;99.90;;;;;;4993271;28;20297;-80
2021/11/13 05:12:47;;;;;;;13.35;7.25;;;2.90;99.90;;;;;;4991402;28;20044;-79
2021/11/13 05:15:13;;;;;;;9.23;6.75;;;3.00;99.90;;;;;;4998515;28;20030;-79
2021/11/13 05:17:39;;;;;;;11.85;8.27;;;3.00;99.90;;;;;;5006538;28;20029;-78
2021/11/13 05:20:08;;;;;;;10.82;7.07;;;3.00;99.90;;;;;;4992599;28;20034;-79
2021/11/13 05:22:38;;;;;;;14.23;7.97;;;3.10;99.90;;;;;;5010709;28;20037;-79
2021/11/13 05:25:05;;;;;;;14.57;7.65;;;3.00;99.90;;;;;;4992365;28;20087;-79
2021/11/13 05:27:31;;;;;;;11.50;7.25;;;3.00;99.90;;;;;;5011041;28;20029;-79
2021/11/13 05:29:57;;;;;;;12.02;7.07;;;3.00;99.90;;;;;;5010031;28;20037;-79
2021/11/13 05:32:23;;;;;;;12.13;7.38;;;3.00;99.90;;;;;;4992874;28;20034;-79
2021/11/13 05:34:48;;;;;;;12.95;7.25;;;3.00;99.90;;;;;;5007337;28;20854;-79
2021/11/13 05:37:14;;;;;;;12.25;7.32;;;3.10;99.90;;;;;;4995187;28;20459;-79
2021/11/13 05:39:40;;;;;;;12.45;7.57;;;3.10;99.90;;;;;;4991188;28;20065;-79
2021/11/13 05:42:06;;;;;;;10.15;6.80;;;3.10;99.90;;;;;;4999297;28;20091;-79
2021/11/13 05:44:32;;;;;;;16.00;8.23;;;3.10;99.90;;;;;;5017319;28;20041;-79
2021/11/13 05:46:58;;;;;;;10.85;7.38;;;3.10;99.90;;;;;;5000428;28;20846;-79
2021/11/13 05:49:23;;;;;;;9.88;6.50;;;3.10;99.90;;;;;;4999600;28;20101;-79
2021/11/13 05:51:50;;;;;;;12.55;7.32;;;3.10;99.90;;;;;;5001935;28;20033;-80
2021/11/13 05:54:16;;;;;;;11.80;7.57;;;3.10;99.90;;;;;;4997757;28;20484;-79
2021/11/13 05:56:42;;;;;;;10.77;7.00;;;3.10;99.90;;;;;;5016644;28;20036;-79
2021/11/13 05:59:07;;;;;;;11.85;6.95;;;3.10;99.90;;;;;;5008322;28;20022;-79
2021/11/13 06:01:33;;;;;;;14.50;6.30;;;3.10;99.90;;;;;;5000243;28;20096;-79
2021/11/13 06:03:59;;;;;;;12.13;7.72;;;3.10;99.90;;;;;;4999154;28;20045;-79
2021/11/13 06:06:25;;;;;;;11.55;6.50;;;3.10;99.90;;;;;;4999106;28;20033;-79
2021/11/13 06:08:51;;;;;;;13.45;6.78;;;3.10;99.90;;;;;;4997471;28;21452;-78
2021/11/13 06:11:17;;;;;;;12.20;6.97;;;3.10;99.90;;;;;;4995743;28;20111;-79
2021/11/13 06:13:42;;;;;;;12.85;6.65;;;3.10;99.90;;;;;;4995461;28;20800;-79
2021/11/13 06:16:09;;;;;;;23.38;16.05;;;3.10;99.90;;;;;;4998374;28;20026;-79
2021/11/13 06:18:38;;;;;;;13.05;7.68;;;3.10;99.90;;;;;;4998533;28;20599;-79
2021/11/13 06:21:06;;;;;;;21.40;7.95;;;3.10;99.90;;;;;;4997981;28;20209;-79
2021/11/13 06:23:37;;;;;;;14.82;7.25;;;3.10;99.90;;;;;;4997459;28;20026;-79
2021/11/13 06:26:05;;;;;;;17.52;7.43;;;3.10;99.90;;;;;;4998105;28;20030;-79
2021/11/13 06:28:31;;;;;;;10.43;7.85;;;3.10;99.90;;;;;;5007487;28;20179;-78
2021/11/13 06:30:57;;;;;;;17.85;7.63;;;3.10;99.90;;;;;;4997061;28;20030;-78
2021/11/13 06:33:23;;;;;;;11.98;7.00;;;3.10;99.90;;;;;;4996258;28;20033;-79
2021/11/13 06:35:49;;;;;;;11.48;7.20;;;3.10;99.90;;;;;;4996029;28;20059;-79
2021/11/13 06:38:16;;;;;;;12.23;7.45;;;3.10;99.90;;;;;;4999116;28;20030;-79
2021/11/13 06:40:42;;;;;;;12.07;7.03;;;3.10;99.90;;;;;;5000437;28;20042;-79
2021/11/13 06:43:08;;;;;;;17.48;7.50;;;3.10;99.90;;;;;;4998605;28;20037;-79
2021/11/13 06:45:34;;;;;;;12.35;7.57;;;3.10;99.90;;;;;;5013261;28;20505;-79
2021/11/13 06:48:00;;;;;;;13.00;7.72;;;3.10;99.90;;;;;;4994604;28;20113;-79
2021/11/13 06:50:26;;;;;;;15.23;7.82;;;3.20;99.90;;;;;;4992537;28;20037;-79
2021/11/13 06:52:52;;;;;;;13.95;7.28;;;3.10;99.90;;;;;;4988747;28;20057;-79
2021/11/13 06:55:18;;;;;;;12.05;7.30;;;3.00;99.90;;;;;;4988068;28;20034;-78
2021/11/13 06:57:44;;;;;;;13.23;6.93;;;3.00;99.90;;;;;;4989984;28;20038;-79
2021/11/13 07:00:16;;;;;;;11.75;7.45;;;3.10;99.90;;;;;;5009926;28;20831;-78
2021/11/13 07:02:42;;;;;;;14.13;8.10;;;3.10;99.90;;;;;;4990487;28;20188;-78
2021/11/13 07:05:09;;;;;;;12.15;7.50;;;3.10;99.90;;;;;;4997537;28;20157;-79
2021/11/13 07:07:36;;;;;;;12.10;7.57;;;3.10;99.90;;;;;;5000292;28;20950;-79
2021/11/13 07:10:05;;;;;;;13.00;7.82;;;3.10;99.90;;;;;;5008688;28;20408;-79
2021/11/13 07:12:31;;;;;;;9.32;6.38;;;3.10;99.90;;;;;;4999438;28;20038;-80
2021/11/13 07:14:57;;;;;;;12.98;7.88;;;3.10;99.90;;;;;;5007989;28;20044;-80
2021/11/13 07:17:23;;;;;;;12.23;7.15;;;3.10;99.90;;;;;;5009812;28;20029;-80
2021/11/13 07:19:49;;;;;;;9.80;6.85;;;3.20;99.90;;;;;;5001632;28;20137;-80
2021/11/13 07:22:16;;;;;;;12.48;7.80;;;3.20;99.90;;;;;;5009485;28;20092;-79
2021/11/13 07:24:42;;;;;;;11.55;6.70;;;3.20;99.90;;;;;;5007627;28;20121;-80
2021/11/13 07:27:09;;;;;;;14.77;7.65;;;3.20;99.90;;;;;;5009091;28;20094;-80
2021/11/13 07:29:44;;;;;;;14.18;7.88;;;3.20;99.90;;;;;;5007484;28;20022;-80
2021/11/13 07:32:11;;;;;;;14.13;7.78;;;3.30;99.90;;;;;;5001730;28;20057;-80
2021/11/13 07:34:37;;;;;;;14.43;8.07;;;3.30;99.90;;;;;;5006681;28;20041;-80
2021/11/13 07:37:04;;;;;;;12.35;7.28;;;3.30;99.90;;;;;;5010263;28;20031;-79
2021/11/13 07:39:29;;;;;;;14.25;7.68;;;3.30;99.90;;;;;;5004704;28;20119;-80
2021/11/13 07:41:55;;;;;;;11.27;7.28;;;3.30;99.90;;;;;;5005167;28;20038;-80
2021/11/13 07:44:21;;;;;;;17.60;8.85;;;3.30;99.90;;;;;;5009267;28;20072;-80
2021/11/13 07:46:46;;;;;;;16.88;7.60;;;3.30;99.90;;;;;;5010155;28;20033;-80
2021/11/13 07:49:12;;;;;;;16.75;8.27;;;3.30;99.90;;;;;;5003614;28;21247;-80
2021/11/13 07:51:39;;;;;;;15.02;8.73;;;3.40;99.90;;;;;;5003161;28;20095;-80
2021/11/13 07:54:05;;;;;;;13.40;8.43;;;3.40;99.90;;;;;;5004862;28;20514;-79
2021/11/13 07:56:31;;;;;;;15.70;7.97;;;3.40;99.90;;;;;;5017664;28;20029;-79
2021/11/13 07:58:57;;;;;;;18.10;9.63;;;3.40;99.90;;;;;;5009709;28;20084;-80
2021/11/13 08:01:24;;;;;;;13.25;7.97;;;3.50;99.90;;;;;;5003816;28;20050;-79
2021/11/13 08:03:50;;;;;;;17.40;8.82;;;3.50;99.90;;;;;;5004451;28;20049;-80
2021/11/13 08:06:19;;;;;;;15.00;7.85;;;3.50;99.90;;;;;;4995822;28;20044;-79
2021/11/13 08:08:44;;;;;;;20.67;10.25;;;3.50;99.90;;;;;;5003288;28;20041;-80
2021/11/13 08:11:10;;;;;;;17.88;8.98;;;3.60;99.90;;;;;;4997736;28;20092;-79
2021/11/13 08:13:39;;;;;;;19.02;8.70;;;3.60;99.90;;;;;;4999053;28;20129;-80
2021/11/13 08:16:05;;;;;;;17.10;8.77;;;3.60;99.90;;;;;;5022597;28;22122;-79
2021/11/13 08:18:31;;;;;;;21.35;10.48;;;3.70;99.90;;;;;;4997979;28;20048;-81
2021/11/13 08:20:59;;;;;;;17.08;9.25;;;3.70;99.90;;;;;;4999329;28;20042;-80
2021/11/13 08:23:25;;;;;;;17.48;9.52;;;3.70;99.90;;;;;;5018115;28;20046;-79
2021/11/13 08:25:52;;;;;;;20.00;10.25;;;3.70;99.90;;;;;;4996519;28;20132;-80
2021/11/13 08:28:19;;;;;;;22.05;11.02;;;3.80;99.90;;;;;;5008786;28;20025;-79
2021/11/13 08:30:46;;;;;;;20.33;10.77;;;3.80;99.90;;;;;;4994227;28;20050;-80
2021/11/13 08:33:12;;;;;;;21.70;9.80;;;3.80;99.90;;;;;;5024841;28;20495;-80
2021/11/13 08:35:40;;;;;;;28.45;12.00;;;3.80;99.90;;;;;;5001006;28;20040;-80
2021/11/13 08:38:14;;;;;;;28.45;12.75;;;3.90;99.90;;;;;;5000865;28;20054;-79
2021/11/13 08:40:41;;;;;;;22.83;10.40;;;3.90;99.90;;;;;;4997999;28;20061;-80
2021/11/13 08:43:07;;;;;;;25.95;12.60;;;3.90;99.90;;;;;;5014112;28;20577;-80
2021/11/13 08:45:33;;;;;;;23.35;11.73;;;4.00;99.90;;;;;;5004188;28;20042;-80
2021/11/13 08:47:59;;;;;;;22.67;12.10;;;4.00;99.90;;;;;;5006961;28;20119;-79
2021/11/13 08:50:28;;;;;;;21.08;10.98;;;4.00;99.90;;;;;;5013476;28;20053;-80
2021/11/13 08:52:56;;;;;;;18.85;10.30;;;4.00;99.90;;;;;;5000174;28;20121;-79
2021/11/13 08:55:24;;;;;;;21.17;11.13;;;4.10;99.90;;;;;;4999154;28;20046;-79
2021/11/13 08:57:51;;;;;;;21.45;10.57;;;4.10;99.90;;;;;;4994566;28;20070;-80
2021/11/13 09:00:24;;;;;;;17.38;10.40;;;4.10;99.90;;;;;;5002855;28;20064;-80
2021/11/13 09:02:51;;;;;;;20.45;10.88;;;4.20;99.90;;;;;;5021995;28;20030;-80
2021/11/13 09:05:16;;;;;;;18.08;10.32;;;4.20;99.90;;;;;;5005120;28;20058;-80
2021/11/13 09:07:43;;;;;;;18.35;10.02;;;4.30;99.90;;;;;;5004788;28;20054;-80
2021/11/13 09:10:09;;;;;;;19.98;11.40;;;4.30;99.90;;;;;;5005496;28;20045;-80
2021/11/13 09:12:36;;;;;;;21.63;12.45;;;4.40;99.90;;;;;;5007093;28;20132;-80
2021/11/13 09:15:07;;;;;;;24.35;11.68;;;4.50;99.90;;;;;;5011612;28;20084;-80
2021/11/13 09:17:33;;;;;;;21.02;9.90;;;4.50;99.90;;;;;;5014881;28;20034;-80
2021/11/13 09:19:58;;;;;;;18.85;10.57;;;4.60;99.90;;;;;;5014281;28;20022;-80
2021/11/13 09:22:24;;;;;;;22.85;11.55;;;4.70;99.90;;;;;;5022563;28;20036;-80
2021/11/13 09:24:50;;;;;;;22.90;11.05;;;4.80;99.90;;;;;;5017367;28;20090;-80
2021/11/13 09:27:16;;;;;;;21.90;11.25;;;4.80;99.90;;;;;;5022562;28;20033;-80
2021/11/13 09:29:42;;;;;;;24.63;11.18;;;4.90;99.90;;;;;;5011813;28;20456;-80
2021/11/13 09:32:08;;;;;;;17.25;10.27;;;4.90;99.90;;;;;;5023891;28;20069;-80
2021/11/13 09:34:34;;;;;;;25.20;12.02;;;4.90;99.90;;;;;;5016308;28;20041;-80
2021/11/13 09:37:00;;;;;;;21.23;11.45;;;5.00;99.90;;;;;;5016457;28;20026;-80
2021/11/13 09:39:26;;;;;;;21.00;12.05;;;5.10;99.90;;;;;;5025649;28;20033;-80
2021/11/13 09:41:52;;;;;;;22.33;11.45;;;5.00;99.90;;;;;;5022314;28;20030;-80
2021/11/13 09:44:19;;;;;;;23.02;11.85;;;5.10;99.90;;;;;;5006387;28;20113;-80
2021/11/13 09:46:46;;;;;;;20.23;11.00;;;5.00;99.90;;;;;;5010092;28;20018;-80
2021/11/13 09:49:14;;;;;;;19.08;10.35;;;5.10;99.90;;;;;;5009109;28;20097;-80
2021/11/13 09:51:40;;;;;;;19.15;10.70;;;5.10;99.90;;;;;;5005209;28;20073;-80
2021/11/13 09:54:06;;;;;;;20.52;10.55;;;5.10;99.90;;;;;;5001285;28;20034;-80
2021/11/13 09:56:32;;;;;;;21.55;12.05;;;5.10;99.90;;;;;;5002399;28;20259;-80
2021/11/13 09:58:59;;;;;;;21.27;11.55;;;5.10;99.90;;;;;;5012868;28;20029;-80
2021/11/13 10:01:24;;;;;;;21.38;11.13;;;5.20;99.90;;;;;;5004159;28;20579;-80
2021/11/13 10:03:51;;;;;;;19.70;11.02;;;5.20;99.90;;;;;;5008633;28;20034;-80
2021/11/13 10:06:17;;;;;;;21.13;11.20;;;5.20;99.90;;;;;;5024667;28;20042;-80
2021/11/13 10:08:49;;;;;;;19.90;10.73;;;5.20;99.90;;;;;;5006209;28;20055;-80
2021/11/13 10:11:24;;;;;;;17.88;9.68;;;5.20;99.90;;;;;;5009729;28;20042;-80
2021/11/13 10:13:55;;;;;;;20.73;10.27;;;5.20;99.90;;;;;;5005651;28;20030;-80
2021/11/13 10:16:36;;;;;;;18.60;11.25;;;5.20;99.90;;;;;;5031854;28;20042;-80
2021/11/13 10:19:14;;;;;;;19.38;10.95;;;5.20;99.90;;;;;;5006008;28;20045;-80
2021/11/13 10:21:43;;;;;;;20.33;9.98;;;5.20;99.90;;;;;;5023234;28;20468;-80
2021/11/13 10:24:28;;;;;;;19.52;10.27;;;5.20;99.90;;;;;;5008630;28;20030;-80
2021/11/13 10:26:58;;;;;;;19.60;10.93;;;5.20;99.90;;;;;;5011313;28;20026;-80
2021/11/13 10:29:30;;;;;;;18.45;9.98;;;5.30;99.90;;;;;;5005672;28;20034;-80
2021/11/13 10:32:02;;;;;;;18.67;10.23;;;5.30;99.90;;;;;;5005273;28;20042;-80
2021/11/13 10:34:36;;;;;;;18.38;10.32;;;5.30;99.90;;;;;;5008041;28;20026;-81
2021/11/13 10:37:09;;;;;;;17.38;10.07;;;5.30;99.90;;;;;;5024898;28;20041;-80
2021/11/13 10:39:39;;;;;;;18.30;9.50;;;5.30;99.90;;;;;;5001739;28;20026;-79
2021/11/13 10:42:08;;;;;;;20.15;10.43;;;5.30;99.90;;;;;;5008177;28;20134;-79
2021/11/13 10:44:44;;;;;;;26.92;19.92;;;5.30;99.90;;;;;;5008946;28;20062;-79
2021/11/13 10:47:15;;;;;;;21.38;12.15;;;5.40;99.90;;;;;;5003856;28;20098;-79
2021/11/13 10:49:41;;;;;;;17.85;10.63;;;5.40;99.90;;;;;;5008513;28;20033;-79
2021/11/13 10:52:08;;;;;;;19.48;10.95;;;5.40;99.90;;;;;;5008434;28;20060;-80
2021/11/13 10:54:35;;;;;;;19.17;10.27;;;5.50;99.90;;;;;;5010601;28;20037;-79
2021/11/13 10:57:04;;;;;;;19.63;10.10;;;5.50;99.90;;;;;;5007865;28;20033;-79
2021/11/13 10:59:38;;;;;;;22.73;11.30;;;5.50;99.90;;;;;;5009741;28;20030;-79
2021/11/13 11:02:15;;;;;;;22.23;10.27;;;5.40;99.90;;;;;;5000241;28;20542;-79
2021/11/13 11:04:43;;;;;;;20.17;10.82;;;5.50;99.90;;;;;;4994756;28;20050;-79
2021/11/13 11:07:24;;;;;;;18.95;10.23;;;5.50;99.90;;;;;;5005534;28;20033;-79
2021/11/13 11:09:58;;;;;;;16.42;9.85;;;5.60;99.90;;;;;;5020409;28;20045;-79
2021/11/13 11:12:28;;;;;;;18.98;10.48;;;5.60;99.90;;;;;;5000807;28;20673;-79
2021/11/13 11:14:54;;;;;;;15.82;9.48;;;5.60;99.90;;;;;;5003356;28;20029;-79
2021/11/13 11:17:24;;;;;;;17.42;10.63;;;5.60;99.90;;;;;;4997673;28;20044;-78
2021/11/13 11:19:52;;;;;;;14.75;9.60;;;5.60;99.90;;;;;;4997242;28;20156;-79
2021/11/13 11:22:23;;;;;;;;;;;5.70;99.90;;;;;;4997735;28;20077;-79
2021/11/13 11:24:54;;;;;;;18.35;9.38;;;5.60;99.90;;;;;;5010377;28;20384;-78
2021/11/13 11:27:29;;;;;;;17.75;9.93;;;5.70;99.90;;;;;;4998190;28;20026;-79
2021/11/13 11:30:03;;;;;;;19.70;9.82;;;5.70;99.90;;;;;;4995106;28;20663;-78
2021/11/13 11:32:46;;;;;;;17.95;10.30;;;5.70;99.90;;;;;;4993254;28;20061;-77
2021/11/13 11:35:23;;;;;;;18.02;10.05;;;5.70;99.90;;;;;;4997091;28;20561;-78
2021/11/13 11:37:54;;;;;;;17.40;9.32;;;5.70;99.90;;;;;;4990639;28;20033;-78
2021/11/13 11:40:24;;;;;;;16.38;8.82;;;5.70;99.90;;;;;;4998468;28;20038;-79
2021/11/13 11:42:50;;;;;;;15.73;9.43;;;5.70;99.90;;;;;;5010230;28;20022;-79
2021/11/13 11:45:24;;;;;;;16.70;9.35;;;5.80;99.90;;;;;;4993665;28;20027;-78
2021/11/13 11:47:51;;;;;;;19.23;10.13;;;5.80;99.90;;;;;;4994886;28;20080;-79
2021/11/13 11:50:26;;;;;;;17.00;9.38;;;5.80;99.90;;;;;;5014080;28;20116;-78
2021/11/13 11:52:57;;;;;;;19.60;11.20;;;5.80;99.90;;;;;;4996677;28;20022;-78
2021/11/13 11:55:23;;;;;;;18.35;10.10;;;5.80;99.90;;;;;;4995819;28;20212;-78
2021/11/13 11:57:58;;;;;;;19.88;10.60;;;5.80;99.90;;;;;;5008001;28;20026;-78
2021/11/13 12:00:26;;;;;;;16.20;10.23;;;5.70;99.90;;;;;;5019446;28;20053;-78
2021/11/13 12:02:57;;;;;;;22.77;10.82;;;5.80;99.90;;;;;;4998786;28;20045;-78
2021/11/13 12:05:48;;;;;;;16.60;10.38;;;5.80;99.90;;;;;;5000573;28;20733;-79
2021/11/13 12:08:23;;;;;;;17.58;10.23;;;5.80;99.90;;;;;;5001661;28;20399;-79
2021/11/13 12:10:50;;;;;;;18.98;10.35;;;5.80;99.90;;;;;;4997683;28;20076;-78
2021/11/13 12:13:25;;;;;;;19.17;10.80;;;5.90;99.90;;;;;;4992761;28;20034;-78
2021/11/13 12:15:57;;;;;;;19.60;10.23;;;5.80;99.90;;;;;;4995829;28;20168;-78
2021/11/13 12:18:27;;;;;;;18.92;10.48;;;5.80;99.90;;;;;;4996639;28;20871;-79
2021/11/13 12:21:03;;;;;;;16.55;10.30;;;5.80;99.90;;;;;;4998961;28;21398;-78
2021/11/13 12:23:39;;;;;;;17.80;9.98;;;5.80;99.90;;;;;;4998534;28;20033;-78
2021/11/13 12:26:37;;;;;;;16.50;10.07;;;5.90;99.90;;;;;;5001459;28;20131;-79
2021/11/13 12:29:04;;;;;;;;;;;5.90;99.90;;;;;;5004499;28;20477;-79
2021/11/13 12:31:40;;;;;;;17.70;9.13;;;5.90;99.90;;;;;;4996617;28;19940;-79
2021/11/13 12:34:18;;;;;;;20.17;9.73;;;5.90;99.90;;;;;;5002911;28;20062;-79
2021/11/13 12:37:03;;;;;;;21.25;10.52;;;5.90;99.90;;;;;;5004461;28;20109;-78
2021/11/13 12:39:46;;;;;;;19.65;11.05;;;6.00;99.90;;;;;;5003682;28;20034;-79
2021/11/13 12:42:24;;;;;;;19.77;12.02;;;6.00;99.90;;;;;;4999299;28;20022;-78
2021/11/13 12:44:54;;;;;;;22.52;11.38;;;6.10;99.90;;;;;;5002706;28;20025;-79
2021/11/13 12:47:24;;;;;;;16.60;9.80;;;6.10;99.90;;;;;;4999949;28;20496;-78
2021/11/13 12:50:06;;;;;;;19.15;11.07;;;6.10;99.90;;;;;;5002898;28;20354;-78
2021/11/13 12:52:39;;;;;;;19.38;10.98;;;6.10;99.90;;;;;;5004828;28;20022;-79